sensor_id;sensor_type;location;lat;lon;timestamp;pressure;altitude;pressure_sealevel;temperature;humidity
76815;BME280;65768;49.906;19.384;2023-06-24T00:00:06;98389.73;;;21.19;78.42
76815;BME280;65768;49.906;19.384;2023-06-24T00:03:24;98378.98;;;20.95;78.65
76815;BME280;65768;49.906;19.384;2023-06-24T00:05:52;98376.55;;;20.89;79.33
76815;BME280;65768;49.906;19.384;2023-06-24T00:08:21;98370.88;;;20.98;79.43
76815;BME280;65768;49.906;19.384;2023-06-24T00:10:50;98369.14;;;20.97;79.32
76815;BME280;65768;49.906;19.384;2023-06-24T00:13:18;98370.81;;;21.00;79.01
76815;BME280;65768;49.906;19.384;2023-06-24T00:15:46;98371.08;;;20.98;79.29
76815;BME280;65768;49.906;19.384;2023-06-24T00:18:14;98369.61;;;20.95;79.25
76815;BME280;65768;49.906;19.384;2023-06-24T00:20:42;98374.23;;;20.90;78.89
76815;BME280;65768;49.906;19.384;2023-06-24T00:23:13;98371.41;;;20.99;78.17
76815;BME280;65768;49.906;19.384;2023-06-24T00:25:44;98369.95;;;21.04;78.06
76815;BME280;65768;49.906;19.384;2023-06-24T00:28:12;98375.83;;;20.99;78.01
76815;BME280;65768;49.906;19.384;2023-06-24T00:30:40;98375.34;;;21.02;77.66
76815;BME280;65768;49.906;19.384;2023-06-24T00:33:08;98374.48;;;21.01;77.79
76815;BME280;65768;49.906;19.384;2023-06-24T00:35:37;98376.46;;;21.10;78.04
76815;BME280;65768;49.906;19.384;2023-06-24T00:38:05;98372.48;;;21.03;77.49
76815;BME280;65768;49.906;19.384;2023-06-24T00:40:33;98377.21;;;20.90;77.39
76815;BME280;65768;49.906;19.384;2023-06-24T00:43:03;98381.56;;;20.93;77.12
76815;BME280;65768;49.906;19.384;2023-06-24T00:45:32;98371.73;;;21.08;76.94
76815;BME280;65768;49.906;19.384;2023-06-24T00:48:00;98375.96;;;20.95;76.39
76815;BME280;65768;49.906;19.384;2023-06-24T00:50:29;98376.48;;;21.00;76.45
76815;BME280;65768;49.906;19.384;2023-06-24T00:52:57;98374.05;;;21.04;76.05
76815;BME280;65768;49.906;19.384;2023-06-24T00:55:25;98380.90;;;20.96;76.32
76815;BME280;65768;49.906;19.384;2023-06-24T00:57:56;98380.04;;;21.00;75.64
76815;BME280;65768;49.906;19.384;2023-06-24T01:00:27;98381.41;;;21.10;76.11
76815;BME280;65768;49.906;19.384;2023-06-24T01:02:56;98383.71;;;21.06;75.74
76815;BME280;65768;49.906;19.384;2023-06-24T01:05:28;98388.88;;;20.92;75.33
76815;BME280;65768;49.906;19.384;2023-06-24T01:07:58;98395.45;;;20.86;74.75
76815;BME280;65768;49.906;19.384;2023-06-24T01:10:26;98395.77;;;20.87;74.61
76815;BME280;65768;49.906;19.384;2023-06-24T01:12:54;98392.86;;;20.93;75.07
76815;BME280;65768;49.906;19.384;2023-06-24T01:15:22;98396.34;;;20.77;74.29
76815;BME280;65768;49.906;19.384;2023-06-24T01:18:30;98396.94;;;20.89;74.48
76815;BME280;65768;49.906;19.384;2023-06-24T01:21:15;98393.44;;;20.83;74.58
76815;BME280;65768;49.906;19.384;2023-06-24T01:26:42;98395.48;;;20.57;74.03
76815;BME280;65768;49.906;19.384;2023-06-24T01:29:36;98399.59;;;20.61;73.87
76815;BME280;65768;49.906;19.384;2023-06-24T01:32:25;98398.77;;;20.74;73.55
76815;BME280;65768;49.906;19.384;2023-06-24T01:35:10;98398.94;;;20.92;73.15
76815;BME280;65768;49.906;19.384;2023-06-24T01:37:45;98398.23;;;21.01;72.80
76815;BME280;65768;49.906;19.384;2023-06-24T01:40:22;98397.81;;;21.08;73.29
76815;BME280;65768;49.906;19.384;2023-06-24T01:42:56;98397.07;;;20.95;73.12
76815;BME280;65768;49.906;19.384;2023-06-24T01:45:41;98399.55;;;20.86;73.32
76815;BME280;65768;49.906;19.384;2023-06-24T01:48:17;98402.66;;;20.97;73.94
76815;BME280;65768;49.906;19.384;2023-06-24T01:50:59;98402.41;;;20.99;73.30
76815;BME280;65768;49.906;19.384;2023-06-24T01:53:28;98400.31;;;20.84;73.44
76815;BME280;65768;49.906;19.384;2023-06-24T01:56:01;98402.01;;;20.91;73.72
76815;BME280;65768;49.906;19.384;2023-06-24T01:58:31;98397.35;;;20.69;73.79
76815;BME280;65768;49.906;19.384;2023-06-24T02:01:03;98397.54;;;20.83;73.64
76815;BME280;65768;49.906;19.384;2023-06-24T02:03:32;98391.98;;;20.71;72.92
76815;BME280;65768;49.906;19.384;2023-06-24T02:06:03;98391.89;;;20.77;72.61
76815;BME280;65768;49.906;19.384;2023-06-24T02:08:33;98387.06;;;20.65;72.50
76815;BME280;65768;49.906;19.384;2023-06-24T02:11:04;98390.90;;;20.76;72.22
76815;BME280;65768;49.906;19.384;2023-06-24T02:13:33;98391.59;;;20.81;72.10
76815;BME280;65768;49.906;19.384;2023-06-24T02:16:04;98383.89;;;20.83;71.84
76815;BME280;65768;49.906;19.384;2023-06-24T02:18:35;98386.42;;;20.86;71.72
76815;BME280;65768;49.906;19.384;2023-06-24T02:21:05;98385.44;;;20.93;71.28
76815;BME280;65768;49.906;19.384;2023-06-24T02:23:36;98388.04;;;20.95;70.96
76815;BME280;65768;49.906;19.384;2023-06-24T02:26:05;98383.02;;;21.05;71.10
76815;BME280;65768;49.906;19.384;2023-06-24T02:28:34;98382.30;;;21.01;70.78
76815;BME280;65768;49.906;19.384;2023-06-24T02:31:04;98382.27;;;21.07;71.41
76815;BME280;65768;49.906;19.384;2023-06-24T02:33:33;98392.90;;;20.98;71.49
76815;BME280;65768;49.906;19.384;2023-06-24T02:36:01;98389.57;;;21.05;71.47
76815;BME280;65768;49.906;19.384;2023-06-24T02:38:29;98391.80;;;20.94;71.56
76815;BME280;65768;49.906;19.384;2023-06-24T02:40:58;98399.55;;;20.95;71.85
76815;BME280;65768;49.906;19.384;2023-06-24T02:43:26;98398.83;;;20.86;72.02
76815;BME280;65768;49.906;19.384;2023-06-24T02:45:54;98398.77;;;20.97;72.40
76815;BME280;65768;49.906;19.384;2023-06-24T02:48:22;98391.61;;;20.71;72.37
76815;BME280;65768;49.906;19.384;2023-06-24T02:50:51;98386.83;;;20.61;72.60
76815;BME280;65768;49.906;19.384;2023-06-24T02:53:19;98382.98;;;20.88;72.18
76815;BME280;65768;49.906;19.384;2023-06-24T02:55:49;98385.52;;;20.68;72.18
76815;BME280;65768;49.906;19.384;2023-06-24T02:58:18;98390.70;;;20.72;72.26
76815;BME280;65768;49.906;19.384;2023-06-24T03:00:46;98394.15;;;20.50;72.80
76815;BME280;65768;49.906;19.384;2023-06-24T03:03:16;98396.33;;;20.43;73.04
76815;BME280;65768;49.906;19.384;2023-06-24T03:05:46;98394.77;;;20.37;73.08
76815;BME280;65768;49.906;19.384;2023-06-24T03:08:16;98390.45;;;20.29;73.53
76815;BME280;65768;49.906;19.384;2023-06-24T03:10:44;98391.39;;;20.48;73.38
76815;BME280;65768;49.906;19.384;2023-06-24T03:13:12;98395.53;;;20.61;72.74
76815;BME280;65768;49.906;19.384;2023-06-24T03:15:40;98393.59;;;20.46;73.07
76815;BME280;65768;49.906;19.384;2023-06-24T03:18:08;98395.52;;;20.56;72.84
76815;BME280;65768;49.906;19.384;2023-06-24T03:20:37;98396.29;;;20.55;72.97
76815;BME280;65768;49.906;19.384;2023-06-24T03:23:06;98401.84;;;20.43;73.30
76815;BME280;65768;49.906;19.384;2023-06-24T03:25:35;98405.36;;;20.43;73.31
76815;BME280;65768;49.906;19.384;2023-06-24T03:28:03;98409.25;;;20.34;73.48
76815;BME280;65768;49.906;19.384;2023-06-24T03:30:31;98409.44;;;20.43;73.15
76815;BME280;65768;49.906;19.384;2023-06-24T03:32:59;98407.11;;;20.39;73.45
76815;BME280;65768;49.906;19.384;2023-06-24T03:35:27;98408.17;;;20.44;73.27
76815;BME280;65768;49.906;19.384;2023-06-24T03:37:55;98407.30;;;20.38;73.64
76815;BME280;65768;49.906;19.384;2023-06-24T03:40:23;98413.06;;;20.51;73.45
76815;BME280;65768;49.906;19.384;2023-06-24T03:42:51;98416.19;;;20.63;73.11
76815;BME280;65768;49.906;19.384;2023-06-24T03:45:19;98413.83;;;20.39;73.67
76815;BME280;65768;49.906;19.384;2023-06-24T03:47:47;98408.70;;;20.59;73.20
76815;BME280;65768;49.906;19.384;2023-06-24T03:50:15;98412.28;;;20.63;73.47
76815;BME280;65768;49.906;19.384;2023-06-24T03:52:43;98412.16;;;20.51;73.70
76815;BME280;65768;49.906;19.384;2023-06-24T03:55:12;98414.67;;;20.75;73.39
76815;BME280;65768;49.906;19.384;2023-06-24T03:57:40;98413.91;;;20.67;73.49
76815;BME280;65768;49.906;19.384;2023-06-24T04:00:09;98414.20;;;20.38;74.13
76815;BME280;65768;49.906;19.384;2023-06-24T04:02:48;98418.20;;;20.80;73.51
76815;BME280;65768;49.906;19.384;2023-06-24T04:05:16;98419.23;;;20.95;72.77
76815;BME280;65768;49.906;19.384;2023-06-24T04:07:44;98425.80;;;20.94;72.65
76815;BME280;65768;49.906;19.384;2023-06-24T04:10:14;98425.20;;;20.82;73.39
76815;BME280;65768;49.906;19.384;2023-06-24T04:12:42;98427.33;;;21.10;72.43
76815;BME280;65768;49.906;19.384;2023-06-24T04:15:10;98426.98;;;21.19;72.46
76815;BME280;65768;49.906;19.384;2023-06-24T04:17:39;98421.55;;;20.99;72.60
76815;BME280;65768;49.906;19.384;2023-06-24T04:20:07;98425.95;;;20.81;73.07
76815;BME280;65768;49.906;19.384;2023-06-24T04:22:40;98432.21;;;21.03;73.25
76815;BME280;65768;49.906;19.384;2023-06-24T04:25:08;98432.19;;;20.89;73.03
76815;BME280;65768;49.906;19.384;2023-06-24T04:27:36;98434.41;;;20.82;73.46
76815;BME280;65768;49.906;19.384;2023-06-24T04:30:05;98436.16;;;20.92;73.50
76815;BME280;65768;49.906;19.384;2023-06-24T04:32:33;98440.30;;;20.86;73.42
76815;BME280;65768;49.906;19.384;2023-06-24T04:35:01;98437.55;;;20.65;74.07
76815;BME280;65768;49.906;19.384;2023-06-24T04:37:30;98436.98;;;20.70;74.22
76815;BME280;65768;49.906;19.384;2023-06-24T04:39:58;98441.19;;;20.91;74.01
76815;BME280;65768;49.906;19.384;2023-06-24T04:42:26;98441.91;;;20.91;73.86
76815;BME280;65768;49.906;19.384;2023-06-24T04:44:54;98445.48;;;20.71;74.15
76815;BME280;65768;49.906;19.384;2023-06-24T04:47:22;98445.17;;;20.88;74.35
76815;BME280;65768;49.906;19.384;2023-06-24T04:49:50;98446.02;;;20.84;74.01
76815;BME280;65768;49.906;19.384;2023-06-24T04:52:18;98447.73;;;20.63;74.84
76815;BME280;65768;49.906;19.384;2023-06-24T04:54:46;98448.20;;;20.79;74.64
76815;BME280;65768;49.906;19.384;2023-06-24T04:57:27;98449.77;;;20.94;74.40
76815;BME280;65768;49.906;19.384;2023-06-24T04:59:56;98455.48;;;20.83;74.65
76815;BME280;65768;49.906;19.384;2023-06-24T05:02:24;98450.09;;;20.89;74.93
76815;BME280;65768;49.906;19.384;2023-06-24T05:04:53;98453.30;;;20.84;74.57
76815;BME280;65768;49.906;19.384;2023-06-24T05:07:26;98456.10;;;20.85;75.19
76815;BME280;65768;49.906;19.384;2023-06-24T05:09:55;98457.25;;;20.73;75.32
76815;BME280;65768;49.906;19.384;2023-06-24T05:12:23;98459.39;;;20.97;74.44
76815;BME280;65768;49.906;19.384;2023-06-24T05:14:51;98457.77;;;20.79;74.95
76815;BME280;65768;49.906;19.384;2023-06-24T05:17:20;98460.27;;;20.73;75.34
76815;BME280;65768;49.906;19.384;2023-06-24T05:19:48;98462.13;;;20.95;75.20
76815;BME280;65768;49.906;19.384;2023-06-24T05:22:16;98463.35;;;21.00;74.76
76815;BME280;65768;49.906;19.384;2023-06-24T05:24:44;98462.30;;;21.18;74.24
76815;BME280;65768;49.906;19.384;2023-06-24T05:27:12;98465.29;;;21.24;74.08
76815;BME280;65768;49.906;19.384;2023-06-24T05:29:40;98466.19;;;21.19;74.54
76815;BME280;65768;49.906;19.384;2023-06-24T05:32:09;98467.26;;;21.14;74.71
76815;BME280;65768;49.906;19.384;2023-06-24T05:34:37;98466.87;;;20.96;75.00
76815;BME280;65768;49.906;19.384;2023-06-24T05:37:05;98472.13;;;20.63;76.29
76815;BME280;65768;49.906;19.384;2023-06-24T05:39:33;98468.04;;;20.83;75.61
76815;BME280;65768;49.906;19.384;2023-06-24T05:42:01;98468.27;;;20.73;76.36
76815;BME280;65768;49.906;19.384;2023-06-24T05:44:29;98470.67;;;20.70;76.46
76815;BME280;65768;49.906;19.384;2023-06-24T05:46:57;98473.77;;;20.91;76.23
76815;BME280;65768;49.906;19.384;2023-06-24T05:49:25;98476.57;;;21.02;76.36
76815;BME280;65768;49.906;19.384;2023-06-24T05:51:54;98483.80;;;20.79;76.54
76815;BME280;65768;49.906;19.384;2023-06-24T05:54:22;98486.65;;;20.68;77.35
76815;BME280;65768;49.906;19.384;2023-06-24T05:56:50;98492.05;;;20.66;77.45
76815;BME280;65768;49.906;19.384;2023-06-24T05:59:18;98493.39;;;20.38;78.72
76815;BME280;65768;49.906;19.384;2023-06-24T06:01:47;98497.16;;;20.20;79.49
76815;BME280;65768;49.906;19.384;2023-06-24T06:04:15;98498.39;;;20.57;78.52
76815;BME280;65768;49.906;19.384;2023-06-24T06:06:43;98503.75;;;20.66;78.67
76815;BME280;65768;49.906;19.384;2023-06-24T06:09:11;98504.70;;;20.59;78.73
76815;BME280;65768;49.906;19.384;2023-06-24T06:11:39;98507.50;;;20.55;79.18
76815;BME280;65768;49.906;19.384;2023-06-24T06:14:07;98512.19;;;20.42;79.65
76815;BME280;65768;49.906;19.384;2023-06-24T06:16:35;98509.60;;;20.35;80.00
76815;BME280;65768;49.906;19.384;2023-06-24T06:19:06;98511.48;;;20.11;81.06
76815;BME280;65768;49.906;19.384;2023-06-24T06:21:36;98508.73;;;20.29;80.85
76815;BME280;65768;49.906;19.384;2023-06-24T06:24:05;98513.46;;;20.36;80.52
76815;BME280;65768;49.906;19.384;2023-06-24T06:26:33;98512.13;;;20.39;80.24
76815;BME280;65768;49.906;19.384;2023-06-24T06:29:01;98513.98;;;20.52;80.20
76815;BME280;65768;49.906;19.384;2023-06-24T06:31:30;98514.83;;;20.69;79.88
76815;BME280;65768;49.906;19.384;2023-06-24T06:33:58;98515.73;;;20.88;79.26
76815;BME280;65768;49.906;19.384;2023-06-24T06:36:26;98519.94;;;20.54;80.14
76815;BME280;65768;49.906;19.384;2023-06-24T06:38:54;98521.48;;;20.61;80.06
76815;BME280;65768;49.906;19.384;2023-06-24T06:41:22;98517.27;;;20.74;79.88
76815;BME280;65768;49.906;19.384;2023-06-24T06:43:53;98520.16;;;20.53;80.40
76815;BME280;65768;49.906;19.384;2023-06-24T06:46:21;98527.56;;;20.43;81.03
76815;BME280;65768;49.906;19.384;2023-06-24T06:48:50;98525.84;;;20.47;81.69
76815;BME280;65768;49.906;19.384;2023-06-24T06:51:18;98531.17;;;20.72;80.76
76815;BME280;65768;49.906;19.384;2023-06-24T06:53:46;98531.84;;;20.53;81.41
76815;BME280;65768;49.906;19.384;2023-06-24T06:56:20;98535.35;;;20.59;81.48
76815;BME280;65768;49.906;19.384;2023-06-24T06:58:51;98532.91;;;20.53;81.76
76815;BME280;65768;49.906;19.384;2023-06-24T07:01:19;98535.80;;;20.61;81.51
76815;BME280;65768;49.906;19.384;2023-06-24T07:03:49;98532.65;;;20.55;81.97
76815;BME280;65768;49.906;19.384;2023-06-24T07:06:18;98535.19;;;20.48;82.63
76815;BME280;65768;49.906;19.384;2023-06-24T07:08:47;98539.29;;;20.68;81.98
76815;BME280;65768;49.906;19.384;2023-06-24T07:11:15;98542.77;;;20.70;82.06
76815;BME280;65768;49.906;19.384;2023-06-24T07:13:44;98543.39;;;20.83;81.39
76815;BME280;65768;49.906;19.384;2023-06-24T07:16:15;98548.04;;;21.01;81.23
76815;BME280;65768;49.906;19.384;2023-06-24T07:18:43;98548.05;;;21.10;80.82
76815;BME280;65768;49.906;19.384;2023-06-24T07:21:12;98550.48;;;20.82;81.55
76815;BME280;65768;49.906;19.384;2023-06-24T07:23:40;98551.93;;;20.96;81.43
76815;BME280;65768;49.906;19.384;2023-06-24T07:26:09;98551.95;;;21.20;80.97
76815;BME280;65768;49.906;19.384;2023-06-24T07:28:37;98559.86;;;21.36;80.37
76815;BME280;65768;49.906;19.384;2023-06-24T07:31:05;98558.79;;;21.27;80.43
76815;BME280;65768;49.906;19.384;2023-06-24T07:33:34;98558.95;;;21.23;80.73
76815;BME280;65768;49.906;19.384;2023-06-24T07:36:03;98569.66;;;21.40;80.70
76815;BME280;65768;49.906;19.384;2023-06-24T07:38:31;98564.91;;;21.34;80.62
76815;BME280;65768;49.906;19.384;2023-06-24T07:41:00;98569.80;;;21.31;80.76
76815;BME280;65768;49.906;19.384;2023-06-24T07:43:28;98573.45;;;21.43;80.69
76815;BME280;65768;49.906;19.384;2023-06-24T07:45:59;98575.14;;;21.26;81.29
76815;BME280;65768;49.906;19.384;2023-06-24T07:48:28;98580.69;;;20.85;82.42
76815;BME280;65768;49.906;19.384;2023-06-24T07:50:57;98584.35;;;20.66;82.89
76815;BME280;65768;49.906;19.384;2023-06-24T07:53:25;98583.89;;;21.00;81.40
76815;BME280;65768;49.906;19.384;2023-06-24T07:55:53;98586.52;;;21.20;80.10
76815;BME280;65768;49.906;19.384;2023-06-24T07:58:21;98593.88;;;21.27;79.93
76815;BME280;65768;49.906;19.384;2023-06-24T08:00:49;98593.94;;;21.11;80.48
76815;BME280;65768;49.906;19.384;2023-06-24T08:03:17;98597.45;;;21.02;80.78
76815;BME280;65768;49.906;19.384;2023-06-24T08:05:45;98601.85;;;20.93;80.87
76815;BME280;65768;49.906;19.384;2023-06-24T08:08:14;98605.54;;;21.09;80.10
76815;BME280;65768;49.906;19.384;2023-06-24T08:10:42;98607.74;;;20.82;80.89
76815;BME280;65768;49.906;19.384;2023-06-24T08:13:11;98608.21;;;20.99;80.07
76815;BME280;65768;49.906;19.384;2023-06-24T08:15:39;98614.05;;;20.84;80.82
76815;BME280;65768;49.906;19.384;2023-06-24T08:18:08;98615.97;;;21.10;80.31
76815;BME280;65768;49.906;19.384;2023-06-24T08:20:36;98615.44;;;21.15;80.11
76815;BME280;65768;49.906;19.384;2023-06-24T08:23:05;98617.34;;;21.16;80.26
76815;BME280;65768;49.906;19.384;2023-06-24T08:25:33;98625.27;;;21.32;79.09
76815;BME280;65768;49.906;19.384;2023-06-24T08:28:01;98626.42;;;21.40;78.88
76815;BME280;65768;49.906;19.384;2023-06-24T08:30:30;98629.02;;;21.47;78.60
76815;BME280;65768;49.906;19.384;2023-06-24T08:32:58;98633.63;;;21.42;78.44
76815;BME280;65768;49.906;19.384;2023-06-24T08:35:26;98633.90;;;21.44;78.14
76815;BME280;65768;49.906;19.384;2023-06-24T08:37:55;98636.58;;;21.14;78.49
76815;BME280;65768;49.906;19.384;2023-06-24T08:40:23;98642.67;;;21.42;77.60
76815;BME280;65768;49.906;19.384;2023-06-24T08:42:51;98643.94;;;21.61;77.14
76815;BME280;65768;49.906;19.384;2023-06-24T08:45:20;98644.41;;;21.63;77.53
76815;BME280;65768;49.906;19.384;2023-06-24T08:47:49;98640.54;;;21.61;76.31
76815;BME280;65768;49.906;19.384;2023-06-24T08:50:19;98643.64;;;21.49;77.03
76815;BME280;65768;49.906;19.384;2023-06-24T08:52:51;98651.77;;;21.50;77.08
76815;BME280;65768;49.906;19.384;2023-06-24T08:55:23;98652.54;;;21.44;76.70
76815;BME280;65768;49.906;19.384;2023-06-24T08:57:51;98654.98;;;21.40;77.30
76815;BME280;65768;49.906;19.384;2023-06-24T09:00:20;98661.70;;;21.41;77.40
76815;BME280;65768;49.906;19.384;2023-06-24T09:02:48;98665.56;;;21.16;77.45
76815;BME280;65768;49.906;19.384;2023-06-24T09:05:17;98668.56;;;21.17;77.96
76815;BME280;65768;49.906;19.384;2023-06-24T09:07:45;98669.10;;;21.32;77.63
76815;BME280;65768;49.906;19.384;2023-06-24T09:10:34;98671.95;;;21.16;78.07
76815;BME280;65768;49.906;19.384;2023-06-24T09:13:04;98676.20;;;20.95;78.77
76815;BME280;65768;49.906;19.384;2023-06-24T09:15:38;98679.33;;;20.97;78.94
76815;BME280;65768;49.906;19.384;2023-06-24T09:18:06;98681.14;;;20.97;78.43
76815;BME280;65768;49.906;19.384;2023-06-24T09:20:35;98688.18;;;21.03;78.35
76815;BME280;65768;49.906;19.384;2023-06-24T09:23:07;98689.16;;;21.16;78.19
76815;BME280;65768;49.906;19.384;2023-06-24T09:25:36;98690.45;;;21.14;78.48
76815;BME280;65768;49.906;19.384;2023-06-24T09:28:04;98694.13;;;21.15;77.88
76815;BME280;65768;49.906;19.384;2023-06-24T09:30:32;98696.31;;;21.14;78.13
76815;BME280;65768;49.906;19.384;2023-06-24T09:33:00;98699.59;;;21.22;77.54
76815;BME280;65768;49.906;19.384;2023-06-24T09:35:34;98706.20;;;21.20;77.99
76815;BME280;65768;49.906;19.384;2023-06-24T09:38:04;98711.46;;;21.17;77.74
76815;BME280;65768;49.906;19.384;2023-06-24T09:40:34;98715.67;;;21.13;76.13
76815;BME280;65768;49.906;19.384;2023-06-24T09:43:04;98717.09;;;21.13;76.77
76815;BME280;65768;49.906;19.384;2023-06-24T09:45:33;98718.39;;;21.17;76.41
76815;BME280;65768;49.906;19.384;2023-06-24T09:48:01;98723.08;;;20.94;76.47
76815;BME280;65768;49.906;19.384;2023-06-24T09:50:30;98726.45;;;20.83;76.67
76815;BME280;65768;49.906;19.384;2023-06-24T09:52:59;98727.78;;;20.91;76.85
76815;BME280;65768;49.906;19.384;2023-06-24T09:55:28;98727.64;;;20.95;76.63
76815;BME280;65768;49.906;19.384;2023-06-24T09:57:56;98730.63;;;20.90;77.22
76815;BME280;65768;49.906;19.384;2023-06-24T10:00:25;98731.13;;;20.81;77.89
76815;BME280;65768;49.906;19.384;2023-06-24T10:02:54;98733.92;;;20.65;78.90
76815;BME280;65768;49.906;19.384;2023-06-24T10:05:23;98731.10;;;20.65;78.69
76815;BME280;65768;49.906;19.384;2023-06-24T10:07:51;98734.05;;;20.61;78.98
76815;BME280;65768;49.906;19.384;2023-06-24T10:10:19;98736.71;;;20.49;79.48
76815;BME280;65768;49.906;19.384;2023-06-24T10:12:48;98740.28;;;20.43;80.19
76815;BME280;65768;49.906;19.384;2023-06-24T10:15:16;98744.95;;;20.28;80.02
76815;BME280;65768;49.906;19.384;2023-06-24T10:17:45;98752.94;;;20.40;79.88
76815;BME280;65768;49.906;19.384;2023-06-24T10:20:13;98751.59;;;20.67;79.21
76815;BME280;65768;49.906;19.384;2023-06-24T10:22:51;98750.63;;;20.80;78.55
76815;BME280;65768;49.906;19.384;2023-06-24T10:25:20;98749.19;;;20.81;78.21
76815;BME280;65768;49.906;19.384;2023-06-24T10:27:55;98750.73;;;20.77;78.51
76815;BME280;65768;49.906;19.384;2023-06-24T10:30:24;98752.00;;;20.87;78.77
76815;BME280;65768;49.906;19.384;2023-06-24T10:32:55;98753.70;;;20.84;78.38
76815;BME280;65768;49.906;19.384;2023-06-24T10:35:26;98753.50;;;20.80;78.17
76815;BME280;65768;49.906;19.384;2023-06-24T10:38:00;98752.19;;;21.03;77.79
76815;BME280;65768;49.906;19.384;2023-06-24T10:40:39;98750.97;;;21.23;78.17
76815;BME280;65768;49.906;19.384;2023-06-24T10:43:23;98750.23;;;21.34;77.71
76815;BME280;65768;49.906;19.384;2023-06-24T10:45:54;98755.17;;;21.46;77.37
76815;BME280;65768;49.906;19.384;2023-06-24T10:48:23;98754.47;;;21.56;76.59
76815;BME280;65768;49.906;19.384;2023-06-24T10:50:51;98753.15;;;21.68;76.78
76815;BME280;65768;49.906;19.384;2023-06-24T10:53:21;98751.64;;;21.76;75.60
76815;BME280;65768;49.906;19.384;2023-06-24T10:55:49;98749.69;;;21.85;75.58
76815;BME280;65768;49.906;19.384;2023-06-24T10:58:18;98751.66;;;21.99;75.69
76815;BME280;65768;49.906;19.384;2023-06-24T11:00:46;98745.25;;;22.04;74.97
76815;BME280;65768;49.906;19.384;2023-06-24T11:03:16;98743.58;;;21.92;74.74
76815;BME280;65768;49.906;19.384;2023-06-24T11:05:48;98744.29;;;21.92;74.91
76815;BME280;65768;49.906;19.384;2023-06-24T11:08:18;98737.13;;;21.98;75.11
76815;BME280;65768;49.906;19.384;2023-06-24T11:10:48;98746.46;;;21.95;74.56
76815;BME280;65768;49.906;19.384;2023-06-24T11:13:20;98746.71;;;21.98;74.70
76815;BME280;65768;49.906;19.384;2023-06-24T11:15:48;98746.61;;;21.96;74.46
76815;BME280;65768;49.906;19.384;2023-06-24T11:18:17;98747.75;;;21.94;74.74
76815;BME280;65768;49.906;19.384;2023-06-24T11:20:45;98746.61;;;21.92;74.90
76815;BME280;65768;49.906;19.384;2023-06-24T11:23:13;98749.65;;;22.06;75.33
76815;BME280;65768;49.906;19.384;2023-06-24T11:25:43;98749.12;;;22.05;74.61
76815;BME280;65768;49.906;19.384;2023-06-24T11:28:16;98749.02;;;22.08;74.12
76815;BME280;65768;49.906;19.384;2023-06-24T11:30:44;98749.85;;;22.19;74.21
76815;BME280;65768;49.906;19.384;2023-06-24T11:33:13;98746.63;;;22.34;74.54
76815;BME280;65768;49.906;19.384;2023-06-24T11:35:41;98747.16;;;22.20;73.81
76815;BME280;65768;49.906;19.384;2023-06-24T11:38:11;98749.92;;;22.23;74.32
76815;BME280;65768;49.906;19.384;2023-06-24T11:40:39;98748.59;;;22.25;74.73
76815;BME280;65768;49.906;19.384;2023-06-24T11:43:08;98748.33;;;22.32;73.71
76815;BME280;65768;49.906;19.384;2023-06-24T11:45:36;98747.54;;;22.34;73.39
76815;BME280;65768;49.906;19.384;2023-06-24T11:48:04;98748.17;;;22.40;73.81
76815;BME280;65768;49.906;19.384;2023-06-24T11:50:32;98743.58;;;22.49;73.09
76815;BME280;65768;49.906;19.384;2023-06-24T11:53:01;98744.30;;;22.53;73.31
76815;BME280;65768;49.906;19.384;2023-06-24T11:55:31;98746.48;;;22.56;73.58
76815;BME280;65768;49.906;19.384;2023-06-24T11:58:01;98748.63;;;22.42;73.00
76815;BME280;65768;49.906;19.384;2023-06-24T12:00:35;98745.70;;;22.22;72.94
76815;BME280;65768;49.906;19.384;2023-06-24T12:03:05;98744.98;;;22.31;72.75
76815;BME280;65768;49.906;19.384;2023-06-24T12:05:36;98739.98;;;22.36;72.44
76815;BME280;65768;49.906;19.384;2023-06-24T12:08:06;98740.36;;;22.36;72.90
76815;BME280;65768;49.906;19.384;2023-06-24T12:10:36;98742.09;;;22.41;73.46
76815;BME280;65768;49.906;19.384;2023-06-24T12:13:06;98740.65;;;22.51;73.23
76815;BME280;65768;49.906;19.384;2023-06-24T12:15:36;98738.21;;;22.63;72.70
76815;BME280;65768;49.906;19.384;2023-06-24T12:18:05;98736.80;;;22.76;71.75
76815;BME280;65768;49.906;19.384;2023-06-24T12:20:36;98739.31;;;22.88;72.28
76815;BME280;65768;49.906;19.384;2023-06-24T12:23:04;98738.34;;;23.00;71.33
76815;BME280;65768;49.906;19.384;2023-06-24T12:25:33;98734.42;;;23.08;70.61
76815;BME280;65768;49.906;19.384;2023-06-24T12:28:01;98736.65;;;23.06;69.92
76815;BME280;65768;49.906;19.384;2023-06-24T12:30:30;98733.52;;;23.21;71.57
76815;BME280;65768;49.906;19.384;2023-06-24T12:32:58;98733.92;;;23.20;71.22
76815;BME280;65768;49.906;19.384;2023-06-24T12:35:26;98736.21;;;22.77;70.39
76815;BME280;65768;49.906;19.384;2023-06-24T12:37:57;98734.80;;;22.81;71.63
76815;BME280;65768;49.906;19.384;2023-06-24T12:40:28;98736.05;;;22.90;71.63
76815;BME280;65768;49.906;19.384;2023-06-24T12:42:56;98742.35;;;22.93;71.63
76815;BME280;65768;49.906;19.384;2023-06-24T12:45:26;98736.97;;;22.72;71.68
76815;BME280;65768;49.906;19.384;2023-06-24T12:47:54;98737.03;;;22.75;71.75
76815;BME280;65768;49.906;19.384;2023-06-24T12:50:23;98736.80;;;22.84;71.51
76815;BME280;65768;49.906;19.384;2023-06-24T12:52:52;98735.67;;;22.95;71.28
76815;BME280;65768;49.906;19.384;2023-06-24T12:55:21;98725.19;;;23.12;71.36
76815;BME280;65768;49.906;19.384;2023-06-24T12:57:49;98731.08;;;23.04;70.55
76815;BME280;65768;49.906;19.384;2023-06-24T13:00:20;98737.67;;;22.81;71.55
76815;BME280;65768;49.906;19.384;2023-06-24T13:02:50;98741.31;;;22.52;72.61
76815;BME280;65768;49.906;19.384;2023-06-24T13:05:19;98742.53;;;21.82;74.13